KABE/ABE METAR and TAF weather

Enter ICAO airport designator
Station Type Date Time Source
KABE METAR 2021/05/17 20:51 UTC NOAA

KABE 172051Z 25007KT 10SM CLR 24/02 A3025 RMK AO2 SLP243 T02390017 56012


Station Type Date Time Source
KABE Decoded METAR 2021/05/17 20:51 UTC NOAA

LEHIGH VALLEY INTERNATIONAL AIRPORT, PA, United States (KABE) 40-39N 075-27W 114M
May 17, 2021 - 04:51 PM EDT / 2021.05.17 2051 UTC
Wind: from the WSW (250 degrees) at 8 MPH (7 KT):0
Visibility: 10 mile(s):0
Sky conditions: clear
Temperature: 75.0 F (23.9 C)
Dew Point: 35.1 F (1.7 C)
Relative Humidity: 23%
Pressure (altimeter): 30.25 in. Hg (1024 hPa)
Pressure tendency: 0.04 inches (1.2 hPa) lower than three hours ago
ob: KABE 172051Z 25007KT 10SM CLR 24/02 A3025 RMK AO2 SLP243 T02390017 56012
cycle: 21

Station Type Date Time Source
KABE TAF 2021/05/17 18:30 UTC NOAA

TAF KABE 171728Z 1718/1818 23006KT P6SM SCT070
FM172300 VRB03KT P6SM SCT250
FM181400 27007KT P6SM SCT050

Example: see airport list